Time,TemperatureF,DewpointF,PressureIn,WindDirection,WindDirectionDegrees,WindSpeedMPH,WindSpeedGustMPH,Humidity,HourlyPrecipIn,Conditions,Clouds,dailyrainin,SoftwareType,DateUTC
2013-05-20 00:01:00,59.5,55.3,30.10,SE,134,0.0,0.0,86,0.00,,,0.00,Wunderground v.1.15,2013-05-20 04:01:00,
2013-05-20 00:03:00,59.5,55.3,30.11,SE,134,0.0,0.0,86,0.00,,,0.00,Wunderground v.1.15,2013-05-20 04:03:00,
2013-05-20 00:09:00,59.4,55.5,30.10,ESE,119,0.0,0.0,87,0.00,,,0.00,Wunderground v.1.15,2013-05-20 04:09:00,
2013-05-20 00:15:00,59.2,55.3,30.10,ESE,110,0.0,1.0,87,0.00,,,0.00,Wunderground v.1.15,2013-05-20 04:15:00,
2013-05-20 00:17:00,59.3,55.4,30.10,East,82,1.0,2.0,87,0.00,,,0.00,Wunderground v.1.15,2013-05-20 04:17:00,
2013-05-20 00:23:00,59.1,55.2,30.09,ENE,61,1.0,2.0,87,0.00,,,0.00,Wunderground v.1.15,2013-05-20 04:23:00,
2013-05-20 00:29:00,59.0,55.1,30.09,ENE,61,1.0,1.0,87,0.00,,,0.00,Wunderground v.1.15,2013-05-20 04:29:00,
2013-05-20 00:35:00,58.9,55.0,30.09,ENE,61,0.0,1.0,87,0.00,,,0.00,Wunderground v.1.15,2013-05-20 04:35:00,
2013-05-20 00:41:00,58.7,54.8,30.09,ENE,61,0.0,0.0,87,0.00,,,0.00,Wunderground v.1.15,2013-05-20 04:41:00,
2013-05-20 00:47:00,58.7,54.8,30.09,ENE,61,0.0,0.0,87,0.00,,,0.00,Wunderground v.1.15,2013-05-20 04:47:00,
2013-05-20 00:53:00,58.6,54.7,30.09,ENE,61,0.0,1.0,87,0.00,,,0.00,Wunderground v.1.15,2013-05-20 04:53:00,
2013-05-20 00:59:00,58.6,54.7,30.09,ENE,70,0.0,0.0,87,0.00,,,0.00,Wunderground v.1.15,2013-05-20 04:59:00,
2013-05-20 01:05:00,58.5,54.6,30.09,ENE,72,1.0,2.0,87,0.00,,,0.00,Wunderground v.1.15,2013-05-20 05:05:00,
2013-05-20 01:11:00,58.5,54.6,30.09,ENE,73,1.0,1.0,87,0.00,,,0.00,Wunderground v.1.15,2013-05-20 05:11:00,
2013-05-20 01:17:00,58.5,54.6,30.09,ENE,73,0.0,1.0,87,0.00,,,0.00,Wunderground v.1.15,2013-05-20 05:17:00,
2013-05-20 01:23:00,58.4,54.5,30.09,ENE,73,0.0,1.0,87,0.00,,,0.00,Wunderground v.1.15,2013-05-20 05:23:00,
2013-05-20 01:29:00,58.4,54.5,30.08,ENE,73,0.0,0.0,87,0.00,,,0.00,Wunderground v.1.15,2013-05-20 05:29:00,
2013-05-20 01:35:00,58.4,54.5,30.08,ENE,73,0.0,0.0,87,0.00,,,0.00,Wunderground v.1.15,2013-05-20 05:35:00,
2013-05-20 01:41:00,58.3,54.4,30.08,ENE,73,0.0,0.0,87,0.00,,,0.00,Wunderground v.1.15,2013-05-20 05:41:00,
2013-05-20 01:47:00,58.4,54.5,30.08,ENE,73,0.0,0.0,87,0.00,,,0.00,Wunderground v.1.15,2013-05-20 05:47:00,
2013-05-20 01:53:00,58.3,54.4,30.08,ENE,73,0.0,0.0,87,0.00,,,0.00,Wunderground v.1.15,2013-05-20 05:53:00,
2013-05-20 01:59:00,58.3,54.4,30.08,ENE,71,0.0,2.0,87,0.00,,,0.00,Wunderground v.1.15,2013-05-20 05:59:00,
2013-05-20 02:05:00,58.4,54.5,30.07,ENE,69,1.0,2.0,87,0.00,,,0.00,Wunderground v.1.15,2013-05-20 06:05:00,
2013-05-20 02:11:00,58.4,54.5,30.07,ENE,69,0.0,1.0,87,0.00,,,0.00,Wunderground v.1.15,2013-05-20 06:11:00,
2013-05-20 02:17:00,58.4,54.5,30.06,ENE,69,0.0,1.0,87,0.00,,,0.00,Wunderground v.1.15,2013-05-20 06:17:00,
2013-05-20 02:23:00,58.4,54.5,30.06,ENE,73,0.0,1.0,87,0.00,,,0.00,Wunderground v.1.15,2013-05-20 06:23:00,
2013-05-20 02:29:00,58.4,54.5,30.05,ENE,70,0.0,0.0,87,0.00,,,0.00,Wunderground v.1.15,2013-05-20 06:29:00,
2013-05-20 02:35:00,58.4,54.5,30.06,ENE,70,0.0,0.0,87,0.00,,,0.00,Wunderground v.1.15,2013-05-20 06:35:00,
2013-05-20 02:41:00,58.4,54.5,30.06,ENE,70,0.0,0.0,87,0.00,,,0.00,Wunderground v.1.15,2013-05-20 06:41:00,
2013-05-20 02:47:00,58.5,54.6,30.06,ENE,66,0.0,0.0,87,0.00,,,0.00,Wunderground v.1.15,2013-05-20 06:47:00,
2013-05-20 02:53:00,58.4,54.5,30.05,ENE,71,1.0,1.0,87,0.00,,,0.00,Wunderground v.1.15,2013-05-20 06:53:00,
2013-05-20 02:59:00,58.4,54.5,30.05,ENE,67,1.0,2.0,87,0.00,,,0.00,Wunderground v.1.15,2013-05-20 06:59:00,
2013-05-20 03:05:00,58.3,54.4,30.05,ENE,66,1.0,3.0,87,0.00,,,0.00,Wunderground v.1.15,2013-05-20 07:05:00,
2013-05-20 03:11:00,58.3,54.4,30.05,ENE,66,0.0,1.0,87,0.00,,,0.00,Wunderground v.1.15,2013-05-20 07:11:00,
2013-05-20 03:17:00,58.3,54.4,30.04,ENE,65,0.0,2.0,87,0.00,,,0.00,Wunderground v.1.15,2013-05-20 07:17:00,
2013-05-20 03:23:00,58.2,54.3,30.04,ENE,66,0.0,0.0,87,0.00,,,0.00,Wunderground v.1.15,2013-05-20 07:23:00,
2013-05-20 03:29:00,58.2,54.3,30.04,ENE,69,0.0,0.0,87,0.00,,,0.00,Wunderground v.1.15,2013-05-20 07:29:00,
2013-05-20 03:35:00,58.2,54.3,30.04,ENE,69,0.0,0.0,87,0.00,,,0.00,Wunderground v.1.15,2013-05-20 07:35:00,
2013-05-20 03:41:00,58.1,54.2,30.04,ENE,69,0.0,2.0,87,0.00,,,0.00,Wunderground v.1.15,2013-05-20 07:41:00,
2013-05-20 03:47:00,58.1,54.2,30.05,ENE,69,0.0,2.0,87,0.00,,,0.00,Wunderground v.1.15,2013-05-20 07:47:00,
2013-05-20 03:53:00,58.1,54.2,30.05,ENE,69,0.0,0.0,87,0.00,,,0.00,Wunderground v.1.15,2013-05-20 07:53:00,
2013-05-20 03:59:00,58.1,54.2,30.05,ENE,69,0.0,0.0,87,0.00,,,0.00,Wunderground v.1.15,2013-05-20 07:59:00,
2013-05-20 04:05:00,58.1,54.2,30.04,ENE,69,0.0,0.0,87,0.00,,,0.00,Wunderground v.1.15,2013-05-20 08:05:00,
2013-05-20 04:11:00,58.1,54.2,30.03,ENE,69,1.0,3.0,87,0.00,,,0.00,Wunderground v.1.15,2013-05-20 08:11:00,
2013-05-20 04:17:00,58.1,54.2,30.03,ENE,69,1.0,3.0,87,0.00,,,0.00,Wunderground v.1.15,2013-05-20 08:17:00,
2013-05-20 04:23:00,58.0,54.2,30.03,ENE,71,0.0,0.0,87,0.00,,,0.00,Wunderground v.1.15,2013-05-20 08:23:00,
2013-05-20 04:29:00,58.0,54.2,30.03,ENE,71,0.0,0.0,87,0.00,,,0.00,Wunderground v.1.15,2013-05-20 08:29:00,
2013-05-20 04:35:00,58.1,54.2,30.03,ENE,71,0.0,0.0,87,0.00,,,0.00,Wunderground v.1.15,2013-05-20 08:35:00,
2013-05-20 04:41:00,58.1,54.2,30.03,ENE,71,0.0,0.0,87,0.00,,,0.00,Wunderground v.1.15,2013-05-20 08:41:00,
2013-05-20 04:47:00,58.1,54.2,30.03,ENE,71,0.0,2.0,87,0.00,,,0.00,Wunderground v.1.15,2013-05-20 08:47:00,
2013-05-20 04:53:00,58.2,54.3,30.04,ENE,71,0.0,0.0,87,0.00,,,0.00,Wunderground v.1.15,2013-05-20 08:53:00,
2013-05-20 04:59:00,58.2,54.3,30.03,ENE,71,0.0,0.0,87,0.00,,,0.00,Wunderground v.1.15,2013-05-20 08:59:00,
2013-05-20 05:05:00,58.2,54.3,30.03,ENE,71,0.0,0.0,87,0.00,,,0.00,Wunderground v.1.15,2013-05-20 09:05:00,
2013-05-20 05:11:00,58.2,54.3,30.03,ENE,71,0.0,0.0,87,0.00,,,0.00,Wunderground v.1.15,2013-05-20 09:11:00,
2013-05-20 05:17:00,58.2,54.3,30.03,ENE,71,0.0,0.0,87,0.00,,,0.00,Wunderground v.1.15,2013-05-20 09:17:00,
2013-05-20 05:23:00,58.2,54.3,30.03,ENE,71,0.0,0.0,87,0.00,,,0.00,Wunderground v.1.15,2013-05-20 09:23:00,
2013-05-20 05:29:00,58.2,54.3,30.04,ENE,71,0.0,0.0,87,0.00,,,0.00,Wunderground v.1.15,2013-05-20 09:29:00,
2013-05-20 05:35:00,58.2,54.3,30.04,ENE,71,0.0,0.0,87,0.00,,,0.00,Wunderground v.1.15,2013-05-20 09:35:00,
2013-05-20 05:41:00,58.3,54.4,30.04,ENE,71,0.0,0.0,87,0.00,,,0.00,Wunderground v.1.15,2013-05-20 09:41:00,
2013-05-20 05:47:00,58.3,54.4,30.04,ENE,71,0.0,0.0,87,0.00,,,0.00,Wunderground v.1.15,2013-05-20 09:47:00,
2013-05-20 05:53:00,58.3,54.4,30.03,ENE,71,0.0,0.0,87,0.00,,,0.00,Wunderground v.1.15,2013-05-20 09:53:00,
2013-05-20 05:59:00,58.3,54.4,30.03,ENE,71,0.0,0.0,87,0.00,,,0.00,Wunderground v.1.15,2013-05-20 09:59:00,
2013-05-20 06:05:00,58.4,54.5,30.04,ENE,71,0.0,2.0,87,0.00,,,0.00,Wunderground v.1.15,2013-05-20 10:05:00,
2013-05-20 06:11:00,58.5,54.3,30.04,ENE,67,1.0,2.0,86,0.00,,,0.00,Wunderground v.1.15,2013-05-20 10:11:00,
2013-05-20 06:17:00,58.6,54.4,30.05,ENE,66,1.0,2.0,86,0.00,,,0.00,Wunderground v.1.15,2013-05-20 10:17:00,
2013-05-20 06:23:00,58.7,54.5,30.04,ENE,66,0.0,1.0,86,0.00,,,0.00,Wunderground v.1.15,2013-05-20 10:23:00,
2013-05-20 06:29:00,58.9,54.7,30.05,ENE,63,0.0,3.0,86,0.00,,,0.00,Wunderground v.1.15,2013-05-20 10:29:00,
2013-05-20 06:35:00,59.0,54.8,30.05,ENE,63,1.0,3.0,86,0.00,,,0.00,Wunderground v.1.15,2013-05-20 10:35:00,
2013-05-20 06:41:00,59.1,55.2,30.05,ENE,63,0.0,1.0,87,0.00,,,0.00,Wunderground v.1.15,2013-05-20 10:41:00,
2013-05-20 06:47:00,59.2,55.3,30.05,ENE,66,0.0,2.0,87,0.00,,,0.00,Wunderground v.1.15,2013-05-20 10:47:00,
2013-05-20 06:53:00,59.4,55.5,30.05,ENE,73,1.0,2.0,87,0.00,,,0.00,Wunderground v.1.15,2013-05-20 10:53:00,
2013-05-20 06:59:00,59.6,55.7,30.06,ENE,74,1.0,1.0,87,0.00,,,0.00,Wunderground v.1.15,2013-05-20 10:59:00,
2013-05-20 07:05:00,59.8,55.9,30.06,East,80,1.0,3.0,87,0.00,,,0.00,Wunderground v.1.15,2013-05-20 11:05:00,
2013-05-20 07:11:00,59.9,56.0,30.06,East,80,1.0,1.0,87,0.00,,,0.00,Wunderground v.1.15,2013-05-20 11:11:00,
2013-05-20 07:17:00,60.0,56.1,30.05,East,80,0.0,1.0,87,0.00,,,0.00,Wunderground v.1.15,2013-05-20 11:17:00,
2013-05-20 07:23:00,60.1,56.2,30.06,East,87,1.0,2.0,87,0.00,,,0.00,Wunderground v.1.15,2013-05-20 11:23:00,
2013-05-20 07:29:00,60.2,56.3,30.06,East,90,1.0,1.0,87,0.00,,,0.00,Wunderground v.1.15,2013-05-20 11:29:00,
2013-05-20 07:35:00,60.3,56.4,30.06,East,90,1.0,2.0,87,0.00,,,0.00,Wunderground v.1.15,2013-05-20 11:35:00,
2013-05-20 07:41:00,60.5,56.6,30.06,East,90,0.0,1.0,87,0.00,,,0.00,Wunderground v.1.15,2013-05-20 11:41:00,
2013-05-20 07:47:00,60.8,56.9,30.06,East,90,0.0,1.0,87,0.00,,,0.00,Wunderground v.1.15,2013-05-20 11:47:00,
2013-05-20 07:53:00,61.1,57.2,30.05,East,90,0.0,0.0,87,0.00,,,0.00,Wunderground v.1.15,2013-05-20 11:53:00,
2013-05-20 07:59:00,61.4,57.5,30.06,East,90,0.0,0.0,87,0.00,,,0.00,Wunderground v.1.15,2013-05-20 11:59:00,
2013-05-20 08:05:00,61.6,57.7,30.06,East,90,0.0,0.0,87,0.00,,,0.00,Wunderground v.1.15,2013-05-20 12:05:00,
2013-05-20 08:11:00,62.1,58.2,30.05,East,90,0.0,1.0,87,0.00,,,0.00,Wunderground v.1.15,2013-05-20 12:11:00,
2013-05-20 08:17:00,62.5,58.6,30.05,East,95,1.0,4.0,87,0.00,,,0.00,Wunderground v.1.15,2013-05-20 12:17:00,
2013-05-20 08:23:00,62.9,59.0,30.05,East,95,1.0,3.0,87,0.00,,,0.00,Wunderground v.1.15,2013-05-20 12:23:00,
2013-05-20 08:29:00,63.2,58.9,30.06,East,95,0.0,0.0,86,0.00,,,0.00,Wunderground v.1.15,2013-05-20 12:29:00,
2013-05-20 08:35:00,63.6,59.3,30.06,East,95,0.0,0.0,86,0.00,,,0.00,Wunderground v.1.15,2013-05-20 12:35:00,
2013-05-20 08:41:00,64.0,59.7,30.06,East,95,0.0,0.0,86,0.00,,,0.00,Wunderground v.1.15,2013-05-20 12:41:00,
2013-05-20 08:47:00,64.5,59.9,30.06,East,95,0.0,0.0,85,0.00,,,0.00,Wunderground v.1.15,2013-05-20 12:47:00,
2013-05-20 08:53:00,65.0,60.7,30.06,East,95,0.0,0.0,86,0.00,,,0.00,Wunderground v.1.15,2013-05-20 12:53:00,
2013-05-20 08:59:00,65.3,60.3,30.06,East,99,0.0,0.0,84,0.00,,,0.00,Wunderground v.1.15,2013-05-20 12:59:00,
2013-05-20 09:05:00,65.7,60.4,30.06,East,100,1.0,1.0,83,0.00,,,0.00,Wunderground v.1.15,2013-05-20 13:05:00,
2013-05-20 09:11:00,66.2,61.2,30.06,SW,232,1.0,3.0,84,0.00,,,0.00,Wunderground v.1.15,2013-05-20 13:11:00,
2013-05-20 09:17:00,66.6,60.9,30.06,SW,236,1.0,3.0,82,0.00,,,0.00,Wunderground v.1.15,2013-05-20 13:17:00,
2013-05-20 09:23:00,66.9,61.2,30.06,West,263,2.0,5.0,82,0.00,,,0.00,Wunderground v.1.15,2013-05-20 13:23:00,
2013-05-20 09:29:00,67.3,61.6,30.06,WSW,248,2.0,2.0,82,0.00,,,0.00,Wunderground v.1.15,2013-05-20 13:29:00,
2013-05-20 09:35:00,68.0,62.3,30.06,West,269,2.0,2.0,82,0.00,,,0.00,Wunderground v.1.15,2013-05-20 13:35:00,
2013-05-20 09:41:00,68.5,62.4,30.06,West,267,2.0,3.0,81,0.00,,,0.00,Wunderground v.1.15,2013-05-20 13:41:00,
2013-05-20 09:47:00,68.8,62.4,30.05,WSW,257,2.0,9.0,80,0.00,,,0.00,Wunderground v.1.15,2013-05-20 13:47:00,
2013-05-20 09:53:00,69.0,62.2,30.05,WSW,250,3.0,5.0,79,0.00,,,0.00,Wunderground v.1.15,2013-05-20 13:53:00,
2013-05-20 09:59:00,69.1,62.7,30.04,SW,236,3.0,3.0,80,0.00,,,0.00,Wunderground v.1.15,2013-05-20 13:59:00,
2013-05-20 10:05:00,69.3,62.5,30.04,WSW,247,3.0,6.0,79,0.00,,,0.00,Wunderground v.1.15,2013-05-20 14:05:00,
2013-05-20 10:11:00,69.8,63.3,30.04,West,271,2.0,2.0,80,0.00,,,0.00,Wunderground v.1.15,2013-05-20 14:11:00,
2013-05-20 10:17:00,70.2,63.7,30.03,West,277,1.0,2.0,80,0.00,,,0.00,Wunderground v.1.15,2013-05-20 14:17:00,
2013-05-20 10:23:00,70.8,63.2,30.04,WNW,284,1.0,3.0,77,0.00,,,0.00,Wunderground v.1.15,2013-05-20 14:23:00,
2013-05-20 10:29:00,71.3,64.8,30.03,WNW,294,2.0,2.0,80,0.00,,,0.00,Wunderground v.1.15,2013-05-20 14:29:00,
2013-05-20 10:35:00,71.1,63.1,30.03,West,273,3.0,4.0,76,0.00,,,0.00,Wunderground v.1.15,2013-05-20 14:35:00,
2013-05-20 10:41:00,71.5,63.2,30.03,WNW,290,2.0,2.0,75,0.00,,,0.00,Wunderground v.1.15,2013-05-20 14:41:00,
2013-05-20 10:47:00,72.2,63.8,30.03,NW,314,1.0,2.0,75,0.00,,,0.00,Wunderground v.1.15,2013-05-20 14:47:00,
2013-05-20 10:53:00,71.9,63.5,30.03,NW,319,2.0,2.0,75,0.00,,,0.00,Wunderground v.1.15,2013-05-20 14:53:00,
2013-05-20 10:59:00,71.4,63.1,30.03,NW,317,1.0,1.0,75,0.00,,,0.00,Wunderground v.1.15,2013-05-20 14:59:00,
2013-05-20 11:05:00,71.2,63.2,30.02,WNW,302,1.0,3.0,76,0.00,,,0.00,Wunderground v.1.15,2013-05-20 15:05:00,
2013-05-20 11:11:00,71.0,63.1,30.02,WNW,298,1.0,1.0,76,0.00,,,0.00,Wunderground v.1.15,2013-05-20 15:11:00,
2013-05-20 11:17:00,72.0,64.4,30.03,WNW,288,0.0,2.0,77,0.00,,,0.00,Wunderground v.1.15,2013-05-20 15:17:00,
2013-05-20 11:23:00,72.5,64.9,30.02,West,267,1.0,3.0,77,0.00,,,0.00,Wunderground v.1.15,2013-05-20 15:23:00,
2013-05-20 11:29:00,72.5,64.5,30.02,West,268,1.0,1.0,76,0.00,,,0.00,Wunderground v.1.15,2013-05-20 15:29:00,
2013-05-20 11:35:00,72.8,64.0,30.02,WNW,282,2.0,3.0,74,0.00,,,0.00,Wunderground v.1.15,2013-05-20 15:35:00,
2013-05-20 11:41:00,73.2,65.2,30.01,WSW,238,2.0,2.0,76,0.00,,,0.00,Wunderground v.1.15,2013-05-20 15:41:00,
2013-05-20 11:47:00,72.8,63.6,30.01,SSW,205,2.0,3.0,73,0.00,,,0.00,Wunderground v.1.15,2013-05-20 15:47:00,
2013-05-20 11:53:00,72.8,64.4,30.01,SSW,205,0.0,1.0,75,0.00,,,0.00,Wunderground v.1.15,2013-05-20 15:53:00,
2013-05-20 11:59:00,72.5,64.5,30.01,NNE,21,1.0,1.0,76,0.00,,,0.00,Wunderground v.1.15,2013-05-20 15:59:00,
2013-05-20 12:05:00,73.3,65.3,30.00,NNE,24,1.0,1.0,76,0.00,,,0.00,Wunderground v.1.15,2013-05-20 16:05:00,
2013-05-20 12:11:00,74.8,65.6,30.01,WNW,298,1.0,2.0,73,0.00,,,0.00,Wunderground v.1.15,2013-05-20 16:11:00,
2013-05-20 12:17:00,74.6,65.8,30.00,NNW,342,1.0,2.0,74,0.00,,,0.00,Wunderground v.1.15,2013-05-20 16:17:00,
2013-05-20 12:23:00,74.4,64.8,30.00,SSW,200,1.0,3.0,72,0.00,,,0.00,Wunderground v.1.15,2013-05-20 16:23:00,
2013-05-20 12:29:00,74.6,65.0,30.00,SW,221,1.0,1.0,72,0.00,,,0.00,Wunderground v.1.15,2013-05-20 16:29:00,
2013-05-20 12:35:00,74.8,64.4,30.00,SW,218,1.0,3.0,70,0.00,,,0.00,Wunderground v.1.15,2013-05-20 16:35:00,
2013-05-20 12:41:00,75.0,64.5,30.00,WNW,294,1.0,3.0,70,0.00,,,0.00,Wunderground v.1.15,2013-05-20 16:41:00,
2013-05-20 12:47:00,74.9,64.5,30.00,WNW,293,1.0,3.0,70,0.00,,,0.00,Wunderground v.1.15,2013-05-20 16:47:00,
2013-05-20 12:53:00,74.9,65.3,30.00,WNW,285,1.0,3.0,72,0.00,,,0.00,Wunderground v.1.15,2013-05-20 16:53:00,
2013-05-20 12:59:00,75.0,65.0,30.00,WNW,285,1.0,1.0,71,0.00,,,0.00,Wunderground v.1.15,2013-05-20 16:59:00,
2013-05-20 13:05:00,75.2,65.9,30.00,SW,225,1.0,3.0,73,0.00,,,0.00,Wunderground v.1.15,2013-05-20 17:05:00,
2013-05-20 13:11:00,74.8,64.8,29.99,SSW,194,2.0,2.0,71,0.00,,,0.00,Wunderground v.1.15,2013-05-20 17:11:00,
2013-05-20 13:17:00,74.6,64.6,29.99,South,183,2.0,4.0,71,0.00,,,0.00,Wunderground v.1.15,2013-05-20 17:17:00,
2013-05-20 13:23:00,75.3,65.6,29.99,South,172,2.0,4.0,72,0.00,,,0.00,Wunderground v.1.15,2013-05-20 17:23:00,
2013-05-20 13:29:00,76.5,66.4,29.99,South,169,2.0,2.0,71,0.00,,,0.00,Wunderground v.1.15,2013-05-20 17:29:00,
2013-05-20 13:35:00,76.6,65.7,29.99,SSE,164,2.0,3.0,69,0.00,,,0.00,Wunderground v.1.15,2013-05-20 17:35:00,
2013-05-20 13:41:00,76.0,65.1,29.98,SSW,194,1.0,1.0,69,0.00,,,0.00,Wunderground v.1.15,2013-05-20 17:41:00,
2013-05-20 13:47:00,75.7,64.8,29.98,South,191,1.0,1.0,69,0.00,,,0.00,Wunderground v.1.15,2013-05-20 17:47:00,
2013-05-20 13:53:00,75.8,65.3,29.98,SW,227,1.0,3.0,70,0.00,,,0.00,Wunderground v.1.15,2013-05-20 17:53:00,
2013-05-20 13:59:00,75.9,65.4,29.98,SW,233,2.0,3.0,70,0.00,,,0.00,Wunderground v.1.15,2013-05-20 17:59:00,
2013-05-20 14:05:00,75.5,64.6,29.97,SW,233,2.0,3.0,69,0.00,,,0.00,Wunderground v.1.15,2013-05-20 18:05:00,
2013-05-20 14:11:00,76.0,66.3,29.97,SW,233,1.0,1.0,72,0.00,,,0.00,Wunderground v.1.15,2013-05-20 18:11:00,
2013-05-20 14:17:00,77.0,65.6,29.97,WSW,239,0.0,1.0,68,0.00,,,0.00,Wunderground v.1.15,2013-05-20 18:17:00,
2013-05-20 14:23:00,77.9,67.3,29.97,WSW,248,1.0,2.0,70,0.00,,,0.00,Wunderground v.1.15,2013-05-20 18:23:00,
2013-05-20 14:29:00,77.4,65.6,29.97,NNE,24,1.0,1.0,67,0.00,,,0.00,Wunderground v.1.15,2013-05-20 18:29:00,
2013-05-20 14:35:00,78.0,67.4,29.97,WNW,291,1.0,4.0,70,0.00,,,0.00,Wunderground v.1.15,2013-05-20 18:35:00,
2013-05-20 14:41:00,77.6,65.3,29.97,WSW,240,1.0,1.0,66,0.00,,,0.00,Wunderground v.1.15,2013-05-20 18:41:00,
2013-05-20 14:47:00,77.5,66.1,29.97,West,261,1.0,2.0,68,0.00,,,0.00,Wunderground v.1.15,2013-05-20 18:47:00,
2013-05-20 14:53:00,78.1,67.1,29.97,West,266,1.0,3.0,69,0.00,,,0.00,Wunderground v.1.15,2013-05-20 18:53:00,
2013-05-20 14:59:00,78.3,66.4,29.96,WSW,246,1.0,1.0,67,0.00,,,0.00,Wunderground v.1.15,2013-05-20 18:59:00,
2013-05-20 15:05:00,78.7,65.9,29.96,SSW,201,1.0,2.0,65,0.00,,,0.00,Wunderground v.1.15,2013-05-20 19:05:00,
2013-05-20 15:11:00,78.8,66.0,29.97,SSW,207,1.0,4.0,65,0.00,,,0.00,Wunderground v.1.15,2013-05-20 19:11:00,
2013-05-20 15:17:00,78.5,66.6,29.97,NW,325,1.0,4.0,67,0.00,,,0.00,Wunderground v.1.15,2013-05-20 19:17:00,
2013-05-20 15:23:00,78.8,67.3,29.97,NE,39,2.0,4.0,68,0.00,,,0.00,Wunderground v.1.15,2013-05-20 19:23:00,
2013-05-20 15:29:00,78.1,66.2,29.97,NNW,331,1.0,2.0,67,0.00,,,0.00,Wunderground v.1.15,2013-05-20 19:29:00,
2013-05-20 15:35:00,77.8,66.0,29.96,NNW,331,0.0,2.0,67,0.00,,,0.00,Wunderground v.1.15,2013-05-20 19:35:00,
2013-05-20 15:41:00,79.1,66.3,29.96,NNW,332,0.0,3.0,65,0.00,,,0.00,Wunderground v.1.15,2013-05-20 19:41:00,
2013-05-20 15:47:00,79.5,66.7,29.96,NNW,327,1.0,6.0,65,0.00,,,0.00,Wunderground v.1.15,2013-05-20 19:47:00,
2013-05-20 15:52:00,79.7,66.0,29.95,WNW,296,2.0,3.0,63,0.00,,,0.00,Wunderground v.1.15,2013-05-20 19:52:00,
2013-05-20 15:59:00,79.8,64.7,29.95,SW,220,2.0,2.0,60,0.00,,,0.00,Wunderground v.1.15,2013-05-20 19:59:00,
2013-05-20 16:05:00,79.8,65.6,29.95,WSW,242,2.0,3.0,62,0.00,,,0.00,Wunderground v.1.15,2013-05-20 20:05:00,
2013-05-20 16:11:00,80.4,67.6,29.94,NW,326,1.0,7.0,65,0.00,,,0.00,Wunderground v.1.15,2013-05-20 20:11:00,
2013-05-20 16:17:00,80.1,65.9,29.94,NW,318,1.0,7.0,62,0.00,,,0.00,Wunderground v.1.15,2013-05-20 20:17:00,
2013-05-20 16:23:00,80.4,67.1,29.94,West,266,1.0,2.0,64,0.00,,,0.00,Wunderground v.1.15,2013-05-20 20:23:00,
2013-05-20 16:28:00,81.0,66.8,29.94,NW,306,1.0,3.0,62,0.00,,,0.00,Wunderground v.1.15,2013-05-20 20:28:00,
2013-05-20 16:35:00,81.2,66.0,29.94,West,267,1.0,3.0,60,0.00,,,0.00,Wunderground v.1.15,2013-05-20 20:35:00,
2013-05-20 16:40:00,80.6,66.4,29.94,West,281,2.0,2.0,62,0.00,,,0.00,Wunderground v.1.15,2013-05-20 20:40:00,
2013-05-20 16:46:00,80.9,65.2,29.93,WNW,300,2.0,2.0,59,0.00,,,0.00,Wunderground v.1.15,2013-05-20 20:46:00,
2013-05-20 16:52:00,80.9,65.2,29.94,NW,305,0.0,1.0,59,0.00,,,0.00,Wunderground v.1.15,2013-05-20 20:52:00,
2013-05-20 16:58:00,81.0,67.2,29.93,NW,322,1.0,1.0,63,0.00,,,0.00,Wunderground v.1.15,2013-05-20 20:58:00,
2013-05-20 17:04:00,80.9,65.2,29.93,West,271,1.0,1.0,59,0.00,,,0.00,Wunderground v.1.15,2013-05-20 21:04:00,
2013-05-20 17:10:00,81.3,65.6,29.93,West,280,1.0,1.0,59,0.00,,,0.00,Wunderground v.1.15,2013-05-20 21:10:00,
2013-05-20 17:16:00,81.8,65.6,29.93,West,277,1.0,3.0,58,0.00,,,0.00,Wunderground v.1.15,2013-05-20 21:16:00,
2013-05-20 17:22:00,81.3,65.1,29.93,NW,323,2.0,3.0,58,0.00,,,0.00,Wunderground v.1.15,2013-05-20 21:22:00,
2013-05-20 17:28:00,81.3,65.6,29.93,NW,306,1.0,3.0,59,0.00,,,0.00,Wunderground v.1.15,2013-05-20 21:28:00,
2013-05-20 17:33:00,81.3,66.1,29.93,NW,318,1.0,2.0,60,0.00,,,0.00,Wunderground v.1.15,2013-05-20 21:33:00,
2013-05-20 17:40:00,81.5,65.3,29.93,NNW,328,1.0,2.0,58,0.00,,,0.00,Wunderground v.1.15,2013-05-20 21:40:00,
2013-05-20 17:46:00,81.3,66.1,29.93,NW,313,1.0,4.0,60,0.00,,,0.00,Wunderground v.1.15,2013-05-20 21:46:00,
2013-05-20 17:52:00,81.1,64.4,29.93,West,273,2.0,2.0,57,0.00,,,0.00,Wunderground v.1.15,2013-05-20 21:52:00,
2013-05-20 17:58:00,81.4,66.2,29.92,West,267,1.0,2.0,60,0.00,,,0.00,Wunderground v.1.15,2013-05-20 21:58:00,
2013-05-20 18:04:00,81.1,64.9,29.92,West,269,1.0,1.0,58,0.00,,,0.00,Wunderground v.1.15,2013-05-20 22:04:00,
2013-05-20 18:09:00,81.0,65.3,29.92,West,269,1.0,1.0,59,0.00,,,0.00,Wunderground v.1.15,2013-05-20 22:09:00,
2013-05-20 18:16:00,81.0,66.3,29.92,WSW,250,1.0,1.0,61,0.00,,,0.00,Wunderground v.1.15,2013-05-20 22:16:00,
2013-05-20 18:22:00,80.7,65.5,29.91,WSW,247,1.0,1.0,60,0.00,,,0.00,Wunderground v.1.15,2013-05-20 22:22:00,
2013-05-20 18:28:00,80.4,64.8,29.91,WSW,254,1.0,2.0,59,0.00,,,0.00,Wunderground v.1.15,2013-05-20 22:28:00,
2013-05-20 18:34:00,80.7,66.5,29.91,WSW,254,1.0,1.0,62,0.00,,,0.00,Wunderground v.1.15,2013-05-20 22:34:00,
2013-05-20 18:40:00,80.6,65.9,29.90,WSW,254,0.0,0.0,61,0.00,,,0.00,Wunderground v.1.15,2013-05-20 22:40:00,
2013-05-20 18:46:00,80.5,65.3,29.90,WSW,254,0.0,1.0,60,0.00,,,0.00,Wunderground v.1.15,2013-05-20 22:46:00,
2013-05-20 18:52:00,80.4,65.2,29.90,WSW,254,1.0,1.0,60,0.00,,,0.00,Wunderground v.1.15,2013-05-20 22:52:00,
2013-05-20 18:57:00,80.2,65.1,29.90,WSW,254,1.0,1.0,60,0.00,,,0.00,Wunderground v.1.15,2013-05-20 22:57:00,
2013-05-20 19:04:00,80.1,65.4,29.89,WSW,254,0.0,0.0,61,0.00,,,0.00,Wunderground v.1.15,2013-05-20 23:04:00,
2013-05-20 19:09:00,79.7,66.0,29.89,WSW,254,0.0,0.0,63,0.00,,,0.00,Wunderground v.1.15,2013-05-20 23:09:00,
2013-05-20 19:16:00,79.4,66.2,29.89,WSW,254,0.0,0.0,64,0.00,,,0.00,Wunderground v.1.15,2013-05-20 23:16:00,
2013-05-20 19:22:00,79.2,66.9,29.89,WSW,254,0.0,0.0,66,0.00,,,0.00,Wunderground v.1.15,2013-05-20 23:22:00,
2013-05-20 19:28:00,78.8,66.5,29.89,WSW,254,0.0,0.0,66,0.00,,,0.00,Wunderground v.1.15,2013-05-20 23:28:00,
2013-05-20 19:33:00,78.3,66.9,29.89,WSW,254,0.0,0.0,68,0.00,,,0.00,Wunderground v.1.15,2013-05-20 23:33:00,
2013-05-20 19:40:00,77.7,66.3,29.89,WSW,254,0.0,0.0,68,0.00,,,0.00,Wunderground v.1.15,2013-05-20 23:40:00,
2013-05-20 19:46:00,77.1,66.6,29.89,WSW,254,0.0,0.0,70,0.00,,,0.00,Wunderground v.1.15,2013-05-20 23:46:00,
2013-05-20 19:52:00,76.3,66.6,29.89,WSW,254,0.0,0.0,72,0.00,,,0.00,Wunderground v.1.15,2013-05-20 23:52:00,
2013-05-20 19:57:00,75.4,66.1,29.89,WSW,254,0.0,0.0,73,0.00,,,0.00,Wunderground v.1.15,2013-05-20 23:57:00,
2013-05-20 20:04:00,74.6,65.8,29.89,WSW,254,0.0,0.0,74,0.00,,,0.00,Wunderground v.1.15,2013-05-21 00:04:00,
2013-05-20 20:10:00,73.8,65.4,29.89,WSW,254,0.0,0.0,75,0.00,,,0.00,Wunderground v.1.15,2013-05-21 00:10:00,
2013-05-20 20:16:00,73.2,65.2,29.89,WSW,254,0.0,0.0,76,0.00,,,0.00,Wunderground v.1.15,2013-05-21 00:16:00,
2013-05-20 20:22:00,72.6,65.3,29.90,WSW,254,0.0,0.0,78,0.00,,,0.00,Wunderground v.1.15,2013-05-21 00:22:00,
2013-05-20 20:28:00,72.0,64.8,29.91,WSW,255,0.0,0.0,78,0.00,,,0.00,Wunderground v.1.15,2013-05-21 00:28:00,
2013-05-20 20:34:00,71.6,64.7,29.91,WSW,255,0.0,0.0,79,0.00,,,0.00,Wunderground v.1.15,2013-05-21 00:34:00,
2013-05-20 20:39:00,71.3,64.8,29.91,WSW,255,0.0,0.0,80,0.00,,,0.00,Wunderground v.1.15,2013-05-21 00:39:00,
2013-05-20 20:46:00,70.8,64.7,29.91,WSW,255,0.0,0.0,81,0.00,,,0.00,Wunderground v.1.15,2013-05-21 00:46:00,
2013-05-20 20:52:00,70.2,64.4,29.91,WSW,255,0.0,0.0,82,0.00,,,0.00,Wunderground v.1.15,2013-05-21 00:52:00,
2013-05-20 20:58:00,69.6,64.2,29.91,WSW,255,0.0,0.0,83,0.00,,,0.00,Wunderground v.1.15,2013-05-21 00:58:00,
2013-05-20 21:04:00,69.0,64.0,29.91,WSW,255,0.0,0.0,84,0.00,,,0.00,Wunderground v.1.15,2013-05-21 01:04:00,
2013-05-20 21:10:00,68.6,63.6,29.90,WSW,255,0.0,0.0,84,0.00,,,0.00,Wunderground v.1.15,2013-05-21 01:10:00,
2013-05-20 21:16:00,68.1,63.4,29.91,WSW,255,0.0,0.0,85,0.00,,,0.00,Wunderground v.1.15,2013-05-21 01:16:00,
2013-05-20 21:22:00,67.8,63.5,29.91,WSW,255,0.0,0.0,86,0.00,,,0.00,Wunderground v.1.15,2013-05-21 01:22:00,
2013-05-20 21:28:00,67.5,63.2,29.91,WSW,255,0.0,0.0,86,0.00,,,0.00,Wunderground v.1.15,2013-05-21 01:28:00,
2013-05-20 21:34:00,67.0,62.7,29.91,WSW,255,0.0,0.0,86,0.00,,,0.00,Wunderground v.1.15,2013-05-21 01:34:00,
2013-05-20 21:39:00,66.6,62.3,29.91,WSW,255,0.0,0.0,86,0.00,,,0.00,Wunderground v.1.15,2013-05-21 01:39:00,
2013-05-20 21:46:00,66.2,61.9,29.92,WSW,255,0.0,0.0,86,0.00,,,0.00,Wunderground v.1.15,2013-05-21 01:46:00,
2013-05-20 21:51:00,65.9,61.9,29.91,WSW,255,0.0,0.0,87,0.00,,,0.00,Wunderground v.1.15,2013-05-21 01:51:00,
2013-05-20 21:58:00,65.6,61.6,29.91,WSW,255,0.0,0.0,87,0.00,,,0.00,Wunderground v.1.15,2013-05-21 01:58:00,
2013-05-20 22:04:00,65.4,61.4,29.92,WSW,255,0.0,0.0,87,0.00,,,0.00,Wunderground v.1.15,2013-05-21 02:04:00,
2013-05-20 22:09:00,65.5,61.5,29.93,WSW,255,0.0,0.0,87,0.00,,,0.00,Wunderground v.1.15,2013-05-21 02:09:00,
2013-05-20 22:16:00,65.6,61.3,29.92,WSW,255,0.0,0.0,86,0.00,,,0.00,Wunderground v.1.15,2013-05-21 02:16:00,
2013-05-20 22:21:00,65.6,61.3,29.92,WSW,255,0.0,0.0,86,0.00,,,0.00,Wunderground v.1.15,2013-05-21 02:21:00,
2013-05-20 22:28:00,65.4,61.1,29.93,WSW,255,0.0,0.0,86,0.00,,,0.00,Wunderground v.1.15,2013-05-21 02:28:00,
2013-05-20 22:33:00,65.4,61.1,29.93,WSW,257,0.0,2.0,86,0.00,,,0.00,Wunderground v.1.15,2013-05-21 02:33:00,
2013-05-20 22:40:00,65.6,61.3,29.92,West,260,1.0,1.0,86,0.00,,,0.00,Wunderground v.1.15,2013-05-21 02:40:00,
2013-05-20 22:45:00,65.5,61.5,29.92,West,260,1.0,2.0,87,0.00,,,0.00,Wunderground v.1.15,2013-05-21 02:45:00,
2013-05-20 22:52:00,64.9,60.9,29.92,West,260,1.0,1.0,87,0.00,,,0.00,Wunderground v.1.15,2013-05-21 02:52:00,
2013-05-20 22:58:00,64.6,60.6,29.91,WSW,256,0.0,1.0,87,0.00,,,0.00,Wunderground v.1.15,2013-05-21 02:58:00,
2013-05-20 23:03:00,64.6,60.3,29.92,WSW,256,0.0,2.0,86,0.00,,,0.00,Wunderground v.1.15,2013-05-21 03:03:00,
2013-05-20 23:10:00,64.5,60.2,29.92,WSW,256,0.0,0.0,86,0.00,,,0.00,Wunderground v.1.15,2013-05-21 03:10:00,
2013-05-20 23:15:00,64.4,60.1,29.91,WSW,256,0.0,0.0,86,0.00,,,0.00,Wunderground v.1.15,2013-05-21 03:15:00,
2013-05-20 23:22:00,64.3,60.3,29.91,WSW,256,0.0,0.0,87,0.00,,,0.00,Wunderground v.1.15,2013-05-21 03:22:00,
2013-05-20 23:27:00,64.0,59.7,29.91,WSW,256,0.0,0.0,86,0.00,,,0.00,Wunderground v.1.15,2013-05-21 03:27:00,
2013-05-20 23:34:00,63.9,59.6,29.90,WSW,257,0.0,2.0,86,0.00,,,0.00,Wunderground v.1.15,2013-05-21 03:34:00,
2013-05-20 23:39:00,63.9,59.6,29.90,WSW,254,0.0,0.0,86,0.00,,,0.00,Wunderground v.1.15,2013-05-21 03:39:00,
2013-05-20 23:46:00,64.0,59.7,29.91,WSW,254,0.0,0.0,86,0.00,,,0.00,Wunderground v.1.15,2013-05-21 03:46:00,
2013-05-20 23:52:00,64.0,59.7,29.91,WSW,254,0.0,0.0,86,0.00,,,0.00,Wunderground v.1.15,2013-05-21 03:52:00,
2013-05-20 23:57:00,64.0,59.7,29.91,WSW,254,0.0,0.0,86,0.00,,,0.00,Wunderground v.1.15,2013-05-21 03:57:00,